Huvudsida
METAR-TAF:

METAR-TAF

Flygplatser :

Rhodos, Grekland

Rhodos internationella flygplats

latitud: 36-24N, longitud: 028-05E, höjd: 4 m

Aktuellt väderrapport

Denna rapport gjordes för 37 minuter sedan, klockan 14:50 UTC
Vind 12 kt från väst/sydväst
Temperatur 22°C
Fuktighet 31%
Tryck 1009 hPa
Sikt 10 km eller mer
Få moln på en höjd av 2000 ft

METAR: LGRP 211450Z 24012KT 9999 FEW020 22/04 Q1009 NOSIG

Tid: 18:27 (15:27 UTC)

Väderprognos

Denna rapport gjordes för 4 timmar och 27 minuter sedan, klockan 11:00 UTC
Prognos gäller från 21 kl. 12 UTC till 22 kl. 12 UTC
Vind 13 kt från väst/nordväst
Sikt 10 km eller mer
Få moln på en höjd av 2000 ft

TAF: LGRP 211100Z 2112/2212 29013KT 9999 FEW020

Aktuella väderrapporter och prognoser från 4000 flygplatser (METAR- och TAF-rapporter).

De tillgängliga stationerna syns som gula och röda prickar på kartan.

För musen över prickarna för att se namnen på stationerna.

Klicka sedan för att få väderrapporter och prognoser.

För att ändra kartan: Klicka på de gröna knapparna med ett svart kors på för att zooma in; den gröna knappen med ett streck på för att zooma ut; eller på de gröna pilarna för angränsande kartor.


METAR-TAF: